Time;durP1;ratioP1;P1;durP2;ratioP2;P2;SDS_P1;SDS_P2;PMS_P1;PMS_P2;Temp;Humidity;BMP_temperature;BMP_pressure;BME280_temperature;BME280_humidity;BME280_pressure;Samples;Min_cycle;Max_cycle;Signal;HPM_P1;HPM_P2
2022/09/10 00:00:42;;;;;;;;;;;22.40;54.50;;;;;;5090721;28;19920;-60
2022/09/10 00:03:09;;;;;;;;;;;22.40;54.50;;;;;;5087034;28;19924;-61
2022/09/10 00:05:38;;;;;;;;;;;22.40;54.50;;;;;;5073118;28;20015;-61
2022/09/10 00:08:05;;;;;;;;;;;22.40;54.50;;;;;;5068641;28;20012;-61
2022/09/10 00:10:33;;;;;;;;;;;22.40;54.50;;;;;;5073100;28;19955;-61
2022/09/10 00:13:01;;;;;;;;;;;22.40;54.50;;;;;;5068568;28;19920;-62
2022/09/10 00:15:28;;;;;;;;;;;22.40;54.50;;;;;;5073047;28;19926;-62
2022/09/10 00:17:54;;;;;;;;;;;22.40;54.50;;;;;;5067331;28;20020;-61
2022/09/10 00:20:21;;;;;;;;;;;22.40;54.50;;;;;;5084079;28;19947;-60
2022/09/10 00:22:49;;;;;;;;;;;22.40;54.50;;;;;;5077276;28;20071;-61
2022/09/10 00:25:16;;;;;;;;;;;22.40;54.50;;;;;;5067644;28;19927;-61
2022/09/10 00:27:43;;;;;;;;;;;22.40;54.50;;;;;;5072929;28;19924;-61
2022/09/10 00:30:12;;;;;;;;;;;22.40;54.50;;;;;;5071904;28;19946;-61
2022/09/10 00:32:39;;;;;;;;;;;22.40;54.50;;;;;;5066426;28;19924;-62
2022/09/10 00:35:06;;;;;;;;;;;22.40;54.40;;;;;;5074230;28;20009;-61
2022/09/10 00:37:33;;;;;;;;;;;22.40;54.40;;;;;;5080909;28;19921;-61
2022/09/10 00:40:00;;;;;;;;;;;22.40;54.40;;;;;;5072435;28;19932;-61
2022/09/10 00:42:28;;;;;;;;;;;22.40;54.40;;;;;;5066994;28;19959;-61
2022/09/10 00:45:00;;;;;;;;;;;22.40;54.40;;;;;;5062443;28;19924;-61
2022/09/10 00:47:29;;;;;;;;;;;22.40;54.40;;;;;;5071594;28;19920;-61
2022/09/10 00:49:56;;;;;;;;;;;22.40;54.40;;;;;;5071998;28;19994;-61
2022/09/10 00:52:23;;;;;;;;;;;22.40;54.40;;;;;;5071107;28;19924;-61
2022/09/10 00:54:50;;;;;;;;;;;22.40;54.40;;;;;;5073796;28;19974;-61
2022/09/10 00:57:17;;;;;;;;;;;22.40;54.30;;;;;;5070303;28;19980;-61
2022/09/10 00:59:45;;;;;;;;;;;22.40;54.30;;;;;;5086815;28;20274;-61
2022/09/10 01:02:12;;;;;;;;;;;22.40;54.30;;;;;;5080153;28;19926;-61
2022/09/10 01:04:40;;;;;;;;;;;22.40;54.40;;;;;;5090728;28;19920;-61
2022/09/10 01:07:07;;;;;;;;;;;22.40;54.30;;;;;;5072035;28;20285;-60
2022/09/10 01:09:33;;;;;;;;;;;22.30;54.30;;;;;;5067701;28;19924;-61
2022/09/10 01:12:03;;;;;;;;;;;22.40;54.30;;;;;;5071260;28;19973;-61
2022/09/10 01:14:34;;;;;;;;;;;22.40;54.30;;;;;;5072520;28;19924;-61
2022/09/10 01:17:03;;;;;;;;;;;22.40;54.30;;;;;;5069437;28;19974;-60
2022/09/10 01:19:45;;;;;;;;;;;22.40;54.30;;;;;;5078025;28;19920;-61
2022/09/10 01:22:15;;;;;;;;;;;22.40;54.30;;;;;;5054049;28;20369;-61
2022/09/10 01:24:49;;;;;;;;;;;22.40;54.30;;;;;;5070741;28;20007;-61
2022/09/10 01:27:30;;;;;;;;;;;22.40;54.30;;;;;;5067750;28;19971;-60
2022/09/10 01:30:02;;;;;;;;;;;22.40;54.30;;;;;;5058601;28;19924;-61
2022/09/10 01:32:29;;;;;;;;;;;22.40;54.30;;;;;;5065121;28;20433;-61
2022/09/10 01:34:58;;;;;;;;;;;22.40;54.30;;;;;;5083636;28;19920;-61
2022/09/10 01:37:27;;;;;;;;;;;22.40;54.30;;;;;;5076144;28;20022;-61
2022/09/10 01:39:54;;;;;;;;;;;22.30;54.20;;;;;;5089925;28;19995;-61
2022/09/10 01:42:20;;;;;;;;;;;22.30;54.20;;;;;;5086827;28;19959;-61
2022/09/10 01:44:47;;;;;;;;;;;22.40;54.20;;;;;;5082458;28;19927;-62
2022/09/10 01:47:17;;;;;;;;;;;22.30;54.20;;;;;;5086112;28;19946;-61
2022/09/10 01:49:47;;;;;;;;;;;22.30;54.20;;;;;;5059045;28;20018;-61
2022/09/10 01:52:17;;;;;;;;;;;22.30;54.10;;;;;;5084828;28;19932;-61
2022/09/10 01:54:46;;;;;;;;;;;22.30;54.20;;;;;;5075587;28;19991;-61
2022/09/10 01:57:16;;;;;;;;;;;22.40;54.20;;;;;;5091437;28;20312;-61
2022/09/10 01:59:43;;;;;;;;;;;22.30;54.10;;;;;;5063644;28;19930;-61
2022/09/10 02:02:12;;;;;;;;;;;22.30;54.20;;;;;;5068874;28;19970;-60
2022/09/10 02:04:40;;;;;;;;;;;22.30;54.10;;;;;;5070708;28;20019;-61
2022/09/10 02:07:07;;;;;;;;;;;22.30;54.10;;;;;;5073091;28;19946;-61
2022/09/10 02:09:33;;;;;;;;;;;22.30;54.10;;;;;;5055830;28;20007;-61
2022/09/10 02:12:01;;;;;;;;;;;22.30;54.10;;;;;;5065323;28;19973;-61
2022/09/10 02:14:28;;;;;;;;;;;22.30;54.10;;;;;;5065468;28;19925;-61
2022/09/10 02:16:57;;;;;;;;;;;22.30;54.10;;;;;;5072414;28;19970;-61
2022/09/10 02:19:23;;;;;;;;;;;22.30;54.00;;;;;;5078473;28;19920;-61
2022/09/10 02:21:51;;;;;;;;;;;22.30;54.00;;;;;;5074632;28;20381;-61
2022/09/10 02:24:18;;;;;;;;;;;22.30;54.00;;;;;;5080575;28;19973;-61
2022/09/10 02:26:46;;;;;;;;;;;22.30;54.00;;;;;;5071401;28;19924;-61
2022/09/10 02:29:14;;;;;;;;;;;22.30;54.00;;;;;;5074804;28;19919;-60
2022/09/10 02:31:40;;;;;;;;;;;22.30;54.00;;;;;;5074274;28;20330;-61
2022/09/10 02:34:07;;;;;;;;;;;22.30;54.00;;;;;;5075041;28;20053;-61
2022/09/10 02:36:34;;;;;;;;;;;22.30;54.00;;;;;;5092598;28;19927;-59
2022/09/10 02:39:03;;;;;;;;;;;22.30;54.00;;;;;;5062941;28;19924;-61
2022/09/10 02:41:33;;;;;;;;;;;22.30;54.00;;;;;;5092571;28;20258;-62
2022/09/10 02:44:00;;;;;;;;;;;22.30;54.00;;;;;;5074846;28;20385;-61
2022/09/10 02:46:26;;;;;;;;;;;22.30;54.00;;;;;;5074178;28;20300;-61
2022/09/10 02:48:54;;;;;;;;;;;22.30;54.00;;;;;;5066187;28;19981;-61
2022/09/10 02:51:20;;;;;;;;;;;22.30;54.00;;;;;;5059054;28;19927;-61
2022/09/10 02:53:48;;;;;;;;;;;22.30;54.00;;;;;;5090103;28;19967;-61
2022/09/10 02:56:16;;;;;;;;;;;22.30;54.00;;;;;;5073789;28;20015;-61
2022/09/10 02:58:44;;;;;;;;;;;22.30;54.00;;;;;;5078608;28;19977;-61
2022/09/10 03:01:11;;;;;;;;;;;22.30;54.00;;;;;;5073608;28;19924;-61
2022/09/10 03:03:38;;;;;;;;;;;22.30;54.00;;;;;;5074166;28;19920;-61
2022/09/10 03:06:05;;;;;;;;;;;22.30;54.00;;;;;;5092919;28;19969;-61
2022/09/10 03:08:31;;;;;;;;;;;22.30;53.90;;;;;;5071360;28;19960;-60
2022/09/10 03:10:58;;;;;;;;;;;22.30;53.90;;;;;;5073775;28;19930;-62
2022/09/10 03:13:27;;;;;;;;;;;22.30;53.90;;;;;;5058523;28;20372;-61
2022/09/10 03:15:54;;;;;;;;;;;22.30;53.90;;;;;;5069835;28;19920;-61
2022/09/10 03:18:21;;;;;;;;;;;22.30;53.90;;;;;;5059667;28;19920;-61
2022/09/10 03:20:48;;;;;;;;;;;22.30;54.00;;;;;;5066117;28;19927;-61
2022/09/10 03:23:15;;;;;;;;;;;22.30;54.00;;;;;;5066061;28;19928;-61
2022/09/10 03:25:41;;;;;;;;;;;22.30;54.00;;;;;;5057244;28;19963;-61
2022/09/10 03:28:09;;;;;;;;;;;22.30;54.00;;;;;;5065102;28;20009;-61
2022/09/10 03:30:37;;;;;;;;;;;22.30;54.00;;;;;;5074805;28;19927;-61
2022/09/10 03:33:04;;;;;;;;;;;22.30;54.00;;;;;;5072390;28;19928;-61
2022/09/10 03:35:31;;;;;;;;;;;22.30;54.10;;;;;;5074042;28;19959;-61
2022/09/10 03:37:58;;;;;;;;;;;22.30;54.10;;;;;;5081420;28;19932;-61
2022/09/10 03:40:25;;;;;;;;;;;22.30;54.10;;;;;;5067124;28;19970;-61
2022/09/10 03:42:51;;;;;;;;;;;22.20;54.00;;;;;;5073354;28;19920;-61
2022/09/10 03:45:19;;;;;;;;;;;22.20;54.00;;;;;;5065306;28;19950;-60
2022/09/10 03:47:47;;;;;;;;;;;22.20;54.10;;;;;;5066675;28;20007;-61
2022/09/10 03:50:14;;;;;;;;;;;22.20;54.00;;;;;;5071950;28;20387;-62
2022/09/10 03:52:41;;;;;;;;;;;22.20;54.00;;;;;;5072537;28;20273;-61
2022/09/10 03:55:08;;;;;;;;;;;22.20;54.00;;;;;;5072385;28;19920;-61
2022/09/10 03:57:34;;;;;;;;;;;22.20;54.00;;;;;;5073609;28;20285;-61
2022/09/10 04:00:01;;;;;;;;;;;22.20;54.00;;;;;;5082482;28;19920;-61
2022/09/10 04:02:28;;;;;;;;;;;22.20;54.00;;;;;;5064545;28;20388;-62
2022/09/10 04:04:56;;;;;;;;;;;22.20;54.00;;;;;;5061061;28;19985;-61
2022/09/10 04:07:23;;;;;;;;;;;22.20;54.00;;;;;;5073585;28;19951;-61
2022/09/10 04:09:50;;;;;;;;;;;22.20;54.00;;;;;;5082137;28;20014;-61
2022/09/10 04:12:17;;;;;;;;;;;22.20;54.00;;;;;;5072878;28;19924;-60
2022/09/10 04:14:45;;;;;;;;;;;22.20;54.10;;;;;;5059524;28;19975;-60
2022/09/10 04:17:12;;;;;;;;;;;22.20;54.10;;;;;;5072539;28;19927;-61
2022/09/10 04:19:39;;;;;;;;;;;22.20;54.10;;;;;;5065092;28;19920;-61
2022/09/10 04:22:08;;;;;;;;;;;22.20;54.10;;;;;;5071825;28;19920;-61
2022/09/10 04:24:34;;;;;;;;;;;22.20;54.10;;;;;;5064402;28;19951;-61
2022/09/10 04:27:01;;;;;;;;;;;22.20;54.10;;;;;;5091305;28;19920;-60
2022/09/10 04:29:28;;;;;;;;;;;22.20;54.10;;;;;;5074624;28;20007;-61
2022/09/10 04:31:55;;;;;;;;;;;22.20;54.10;;;;;;5072307;28;20338;-61
2022/09/10 04:34:22;;;;;;;;;;;22.20;54.10;;;;;;5076337;28;19927;-60
2022/09/10 04:36:49;;;;;;;;;;;22.20;54.10;;;;;;5068242;28;19927;-61
2022/09/10 04:39:18;;;;;;;;;;;22.20;54.10;;;;;;5061058;28;19930;-61
2022/09/10 04:41:45;;;;;;;;;;;22.20;54.10;;;;;;5068137;28;19924;-61
2022/09/10 04:44:12;;;;;;;;;;;22.20;54.10;;;;;;5061039;28;19924;-60
2022/09/10 04:46:40;;;;;;;;;;;22.20;54.10;;;;;;5063867;28;19921;-61
2022/09/10 04:49:07;;;;;;;;;;;22.20;54.10;;;;;;5064983;28;19924;-61
2022/09/10 04:51:34;;;;;;;;;;;22.20;54.10;;;;;;5066010;28;19994;-61
2022/09/10 04:54:00;;;;;;;;;;;22.20;54.10;;;;;;5065041;28;19974;-61
2022/09/10 04:56:28;;;;;;;;;;;22.20;54.10;;;;;;5066489;28;20014;-61
2022/09/10 04:58:55;;;;;;;;;;;22.20;54.10;;;;;;5083309;28;20014;-61
2022/09/10 05:01:22;;;;;;;;;;;22.20;54.10;;;;;;5069533;28;19958;-61
2022/09/10 05:03:48;;;;;;;;;;;22.20;54.10;;;;;;5058843;28;19920;-61
2022/09/10 05:06:15;;;;;;;;;;;22.20;54.10;;;;;;5067030;28;19967;-60
2022/09/10 05:08:42;;;;;;;;;;;22.20;54.10;;;;;;5071616;28;19966;-61
2022/09/10 05:11:09;;;;;;;;;;;22.20;54.10;;;;;;5090162;28;19927;-61
2022/09/10 05:13:37;;;;;;;;;;;22.20;54.10;;;;;;5068634;28;19952;-60
2022/09/10 05:16:04;;;;;;;;;;;22.20;54.10;;;;;;5053608;28;19935;-61
2022/09/10 05:18:30;;;;;;;;;;;22.20;54.10;;;;;;5071783;28;19920;-61
2022/09/10 05:20:57;;;;;;;;;;;22.20;54.10;;;;;;5068861;28;19924;-61
2022/09/10 05:23:24;;;;;;;;;;;22.20;54.10;;;;;;5066719;28;19924;-60
2022/09/10 05:25:51;;;;;;;;;;;22.20;54.10;;;;;;5059523;28;19919;-61
2022/09/10 05:28:19;;;;;;;;;;;22.20;54.10;;;;;;5059130;28;19927;-61
2022/09/10 05:30:48;;;;;;;;;;;22.20;54.10;;;;;;5085696;28;19931;-61
2022/09/10 05:33:15;;;;;;;;;;;22.20;54.10;;;;;;5089496;28;19920;-61
2022/09/10 05:35:42;;;;;;;;;;;22.20;54.10;;;;;;5089714;28;19939;-60
2022/09/10 05:38:09;;;;;;;;;;;22.20;54.10;;;;;;5062389;28;19962;-61
2022/09/10 05:40:36;;;;;;;;;;;22.20;54.10;;;;;;5070880;28;20287;-61
2022/09/10 05:43:03;;;;;;;;;;;22.20;54.10;;;;;;5069195;28;19920;-60
2022/09/10 05:45:30;;;;;;;;;;;22.20;54.10;;;;;;5068743;28;19969;-61
2022/09/10 05:47:58;;;;;;;;;;;22.20;54.10;;;;;;5070968;28;19969;-61
2022/09/10 05:50:25;;;;;;;;;;;22.20;54.10;;;;;;5075086;28;19921;-60
2022/09/10 05:52:51;;;;;;;;;;;22.20;54.00;;;;;;5083656;28;19985;-61
2022/09/10 05:55:18;;;;;;;;;;;22.20;54.00;;;;;;5065676;28;19928;-61
2022/09/10 05:57:45;;;;;;;;;;;22.20;54.10;;;;;;5069080;28;19943;-61
2022/09/10 06:00:12;;;;;;;;;;;22.20;54.10;;;;;;5069044;28;20328;-60
2022/09/10 06:02:38;;;;;;;;;;;22.20;54.10;;;;;;5071123;28;19924;-60
2022/09/10 06:05:07;;;;;;;;;;;22.20;54.00;;;;;;5059520;28;19954;-62
2022/09/10 06:07:33;;;;;;;;;;;22.20;54.00;;;;;;5089491;28;19920;-61
2022/09/10 06:10:00;;;;;;;;;;;22.20;54.00;;;;;;5084431;28;19920;-61
2022/09/10 06:12:27;;;;;;;;;;;22.20;54.00;;;;;;5071726;28;19931;-61
2022/09/10 06:14:53;;;;;;;;;;;22.20;54.00;;;;;;5076700;28;19966;-61
2022/09/10 06:17:20;;;;;;;;;;;22.20;54.00;;;;;;5070016;28;20028;-61
2022/09/10 06:19:47;;;;;;;;;;;22.20;54.00;;;;;;5070171;28;19924;-61
2022/09/10 06:22:15;;;;;;;;;;;22.20;53.90;;;;;;5071082;28;19924;-60
2022/09/10 06:24:42;;;;;;;;;;;22.20;53.90;;;;;;5062899;28;19924;-61
2022/09/10 06:27:09;;;;;;;;;;;22.20;53.90;;;;;;5067009;28;19920;-62
2022/09/10 06:29:36;;;;;;;;;;;22.20;53.90;;;;;;5057932;28;19974;-61
2022/09/10 06:32:03;;;;;;;;;;;22.20;53.90;;;;;;5070221;28;19930;-61
2022/09/10 06:34:30;;;;;;;;;;;22.20;53.90;;;;;;5069001;28;19927;-61
2022/09/10 06:36:57;;;;;;;;;;;22.20;53.90;;;;;;5071912;28;20211;-61
2022/09/10 06:39:27;;;;;;;;;;;22.20;53.90;;;;;;5074925;28;19920;-61
2022/09/10 06:41:54;;;;;;;;;;;22.20;53.90;;;;;;5074272;28;20366;-59
2022/09/10 06:44:21;;;;;;;;;;;22.20;53.90;;;;;;5069603;28;19983;-61
2022/09/10 06:46:47;;;;;;;;;;;22.20;53.90;;;;;;5071041;28;19923;-60
2022/09/10 06:49:14;;;;;;;;;;;22.20;53.90;;;;;;5071449;28;20027;-60
2022/09/10 06:51:41;;;;;;;;;;;22.20;53.90;;;;;;5073393;28;20033;-60
2022/09/10 06:54:08;;;;;;;;;;;22.20;53.90;;;;;;5091157;28;20015;-61
2022/09/10 06:56:36;;;;;;;;;;;22.20;54.00;;;;;;5062964;28;20009;-60
2022/09/10 06:59:02;;;;;;;;;;;22.20;54.00;;;;;;5073800;28;20007;-60
2022/09/10 07:01:29;;;;;;;;;;;22.20;54.00;;;;;;5089889;28;19920;-60
2022/09/10 07:03:56;;;;;;;;;;;22.20;54.00;;;;;;5073226;28;19930;-60
2022/09/10 07:06:23;;;;;;;;;;;22.20;54.00;;;;;;5088374;28;19952;-60
2022/09/10 07:08:53;;;;;;;;;;;22.20;54.10;;;;;;5071306;28;19920;-59
2022/09/10 07:11:20;;;;;;;;;;;22.20;54.10;;;;;;5071920;28;20331;-60
2022/09/10 07:13:49;;;;;;;;;;;22.20;54.00;;;;;;5074343;28;19927;-60
2022/09/10 07:16:17;;;;;;;;;;;22.20;54.10;;;;;;5073807;28;19963;-59
2022/09/10 07:18:43;;;;;;;;;;;22.20;54.10;;;;;;5073484;28;19920;-60
2022/09/10 07:21:11;;;;;;;;;;;22.20;54.00;;;;;;5073571;28;19977;-60
2022/09/10 07:23:38;;;;;;;;;;;22.20;54.00;;;;;;5071826;28;19920;-60
2022/09/10 07:26:04;;;;;;;;;;;22.20;54.00;;;;;;5089077;28;19924;-60
2022/09/10 07:28:31;;;;;;;;;;;22.20;54.00;;;;;;5071071;28;19921;-61
2022/09/10 07:31:00;;;;;;;;;;;22.20;54.00;;;;;;5059235;28;19924;-61
2022/09/10 07:33:27;;;;;;;;;;;22.20;54.00;;;;;;5058254;28;19920;-62
2022/09/10 07:35:54;;;;;;;;;;;22.20;54.00;;;;;;5068056;28;19920;-61
2022/09/10 07:38:21;;;;;;;;;;;22.30;54.10;;;;;;5073014;28;19943;-61
2022/09/10 07:40:48;;;;;;;;;;;22.30;54.10;;;;;;5079621;28;19932;-61
2022/09/10 07:43:14;;;;;;;;;;;22.30;54.10;;;;;;5086168;28;19920;-61
2022/09/10 07:45:41;;;;;;;;;;;22.30;54.00;;;;;;5092166;28;19928;-60
2022/09/10 07:48:10;;;;;;;;;;;22.30;54.10;;;;;;5084586;28;19924;-61
2022/09/10 07:50:37;;;;;;;;;;;22.30;54.10;;;;;;5070975;28;19920;-61
2022/09/10 07:53:05;;;;;;;;;;;22.30;54.00;;;;;;5092252;28;19931;-63
2022/09/10 07:55:31;;;;;;;;;;;22.30;54.00;;;;;;5068975;28;20010;-61
2022/09/10 07:57:58;;;;;;;;;;;22.30;54.00;;;;;;5073723;28;19924;-60
2022/09/10 08:00:25;;;;;;;;;;;22.30;54.00;;;;;;5072501;28;19920;-59
2022/09/10 08:02:52;;;;;;;;;;;22.30;54.00;;;;;;5088906;28;19927;-59
2022/09/10 08:05:20;;;;;;;;;;;22.30;54.10;;;;;;5072193;28;20001;-60
2022/09/10 08:07:47;;;;;;;;;;;22.30;54.20;;;;;;5086945;28;19924;-60
2022/09/10 08:10:13;;;;;;;;;;;22.30;54.20;;;;;;5088534;28;19924;-60
2022/09/10 08:12:40;;;;;;;;;;;22.30;54.40;;;;;;5090369;28;20023;-60
2022/09/10 08:15:07;;;;;;;;;;;22.30;54.50;;;;;;5069905;28;19970;-59
2022/09/10 08:17:35;;;;;;;;;;;22.30;54.50;;;;;;5073193;28;19920;-60
2022/09/10 08:20:04;;;;;;;;;;;22.30;54.50;;;;;;5067283;28;19930;-60
2022/09/10 08:22:33;;;;;;;;;;;22.30;54.40;;;;;;5070981;28;19920;-60
2022/09/10 08:25:00;;;;;;;;;;;22.30;54.40;;;;;;5073529;28;19932;-60
2022/09/10 08:27:26;;;;;;;;;;;22.30;54.50;;;;;;5066055;28;20011;-61
2022/09/10 08:29:53;;;;;;;;;;;22.30;54.50;;;;;;5064605;28;20401;-60
2022/09/10 08:32:20;;;;;;;;;;;22.30;54.50;;;;;;5059789;28;19924;-60
2022/09/10 08:34:47;;;;;;;;;;;22.30;54.50;;;;;;5061550;28;19924;-61
2022/09/10 08:37:15;;;;;;;;;;;22.30;54.50;;;;;;5055599;28;19947;-61
2022/09/10 08:39:43;;;;;;;;;;;22.30;54.50;;;;;;5082017;28;19927;-59
2022/09/10 08:42:12;;;;;;;;;;;22.30;54.40;;;;;;5067203;28;20524;-59
2022/09/10 08:44:40;;;;;;;;;;;22.30;54.40;;;;;;5062359;28;20018;-59
2022/09/10 08:47:11;;;;;;;;;;;22.30;54.50;;;;;;5052320;28;19920;-60
2022/09/10 08:49:40;;;;;;;;;;;22.30;54.60;;;;;;5055183;28;19970;-61
2022/09/10 08:52:09;;;;;;;;;;;22.30;54.60;;;;;;5060158;28;19924;-60
2022/09/10 08:54:37;;;;;;;;;;;22.30;54.70;;;;;;5065085;28;19926;-60
2022/09/10 08:57:06;;;;;;;;;;;22.30;54.60;;;;;;5063641;28;19932;-60
2022/09/10 08:59:34;;;;;;;;;;;22.30;54.60;;;;;;5062109;28;19982;-60
2022/09/10 09:02:02;;;;;;;;;;;22.30;55.20;;;;;;5061863;28;20049;-60
2022/09/10 09:04:31;;;;;;;;;;;22.30;54.60;;;;;;5064846;28;19920;-61
2022/09/10 09:06:58;;;;;;;;;;;22.30;54.60;;;;;;5057226;28;20278;-60
2022/09/10 09:09:25;;;;;;;;;;;22.30;54.60;;;;;;5066496;28;19985;-61
2022/09/10 09:11:55;;;;;;;;;;;22.40;54.70;;;;;;5053584;28;19920;-61
2022/09/10 09:14:26;;;;;;;;;;;22.40;54.80;;;;;;5058546;28;19924;-61
2022/09/10 09:16:58;;;;;;;;;;;22.40;54.70;;;;;;5067202;28;19927;-60
2022/09/10 09:19:28;;;;;;;;;;;22.40;54.80;;;;;;5063037;28;19924;-61
2022/09/10 09:21:55;;;;;;;;;;;22.40;54.70;;;;;;5080641;28;19966;-60
2022/09/10 09:24:22;;;;;;;;;;;22.40;54.70;;;;;;5060840;28;19984;-60
2022/09/10 09:26:49;;;;;;;;;;;22.40;54.70;;;;;;5068286;28;19952;-59
2022/09/10 09:29:17;;;;;;;;;;;22.40;54.70;;;;;;5068048;28;20043;-60
2022/09/10 09:31:46;;;;;;;;;;;22.40;54.70;;;;;;5074928;28;20028;-59
2022/09/10 09:34:15;;;;;;;;;;;22.40;54.70;;;;;;5059136;28;19928;-59
2022/09/10 09:36:43;;;;;;;;;;;22.40;54.70;;;;;;5074189;28;19974;-60
2022/09/10 09:39:11;;;;;;;;;;;22.40;54.60;;;;;;5062672;28;20007;-60
2022/09/10 09:41:38;;;;;;;;;;;22.40;54.70;;;;;;5060970;28;19928;-60
2022/09/10 09:44:06;;;;;;;;;;;22.40;54.70;;;;;;5063010;28;19982;-61
2022/09/10 09:46:33;;;;;;;;;;;22.50;54.80;;;;;;5078386;28;20280;-60
2022/09/10 09:49:01;;;;;;;;;;;22.50;54.80;;;;;;5062084;28;19979;-59
2022/09/10 09:51:29;;;;;;;;;;;22.50;54.80;;;;;;5073344;28;19924;-60
2022/09/10 09:53:57;;;;;;;;;;;22.40;54.70;;;;;;5060285;28;19924;-59
2022/09/10 09:56:24;;;;;;;;;;;22.50;54.80;;;;;;5074210;28;19955;-60
2022/09/10 09:58:51;;;;;;;;;;;22.50;54.80;;;;;;5059194;28;20006;-60
2022/09/10 10:01:19;;;;;;;;;;;22.50;54.80;;;;;;5062176;28;19921;-60
2022/09/10 10:03:53;;;;;;;;;;;22.50;54.80;;;;;;5064117;28;19927;-60
2022/09/10 10:06:22;;;;;;;;;;;22.40;54.70;;;;;;5060681;28;19981;-60
2022/09/10 10:08:54;;;;;;;;;;;22.40;54.70;;;;;;5062371;28;19924;-59
2022/09/10 10:11:21;;;;;;;;;;;22.40;54.70;;;;;;5059232;28;19924;-60
2022/09/10 10:13:49;;;;;;;;;;;22.50;54.80;;;;;;5078158;28;19921;-60
2022/09/10 10:16:16;;;;;;;;;;;22.50;54.80;;;;;;5070973;28;19946;-60
2022/09/10 10:18:43;;;;;;;;;;;22.50;54.80;;;;;;5067898;28;19921;-59
2022/09/10 10:21:14;;;;;;;;;;;22.50;54.80;;;;;;5077091;28;19955;-59
2022/09/10 10:23:42;;;;;;;;;;;22.50;54.80;;;;;;5090456;28;19924;-59
2022/09/10 10:26:33;;;;;;;;;;;22.50;54.80;;;;;;5069468;28;20045;-59
2022/09/10 10:29:05;;;;;;;;;;;22.50;54.80;;;;;;5068684;28;19924;-61
2022/09/10 10:31:35;;;;;;;;;;;22.50;54.90;;;;;;5064322;28;19928;-59
2022/09/10 10:34:04;;;;;;;;;;;22.50;55.10;;;;;;5070874;28;19923;-60
2022/09/10 10:36:33;;;;;;;;;;;22.50;55.20;;;;;;5063710;28;19928;-59
2022/09/10 10:39:02;;;;;;;;;;;22.50;55.40;;;;;;5072691;28;19942;-59
2022/09/10 10:41:35;;;;;;;;;;;22.50;55.70;;;;;;5065915;28;19920;-60
2022/09/10 10:44:05;;;;;;;;;;;22.40;55.80;;;;;;5069152;28;19926;-59
2022/09/10 10:46:35;;;;;;;;;;;22.50;56.00;;;;;;5065578;28;19925;-59
2022/09/10 10:49:04;;;;;;;;;;;22.50;56.10;;;;;;5068928;28;19920;-59
2022/09/10 10:51:33;;;;;;;;;;;22.50;56.10;;;;;;5084731;28;19921;-59
2022/09/10 10:54:05;;;;;;;;;;;22.50;56.20;;;;;;5067264;28;20381;-60
2022/09/10 10:56:32;;;;;;;;;;;22.40;56.10;;;;;;5090172;28;20007;-59
2022/09/10 10:59:04;;;;;;;;;;;22.40;56.20;;;;;;5063942;28;19928;-59
2022/09/10 11:01:32;;;;;;;;;;;22.40;56.20;;;;;;5065215;28;20568;-60
2022/09/10 11:04:00;;;;;;;;;;;22.40;56.20;;;;;;5070761;28;20421;-60
2022/09/10 11:06:29;;;;;;;;;;;22.40;56.20;;;;;;5085400;28;19920;-59
2022/09/10 11:08:57;;;;;;;;;;;22.40;56.30;;;;;;5083396;28;20351;-60
2022/09/10 11:11:27;;;;;;;;;;;22.40;56.30;;;;;;5066573;28;19924;-59
2022/09/10 11:13:55;;;;;;;;;;;22.40;56.50;;;;;;5060171;28;19924;-60
2022/09/10 11:16:23;;;;;;;;;;;22.40;56.50;;;;;;5069943;28;20444;-59
2022/09/10 11:18:50;;;;;;;;;;;22.40;56.40;;;;;;5060753;28;20047;-60
2022/09/10 11:21:18;;;;;;;;;;;22.40;56.40;;;;;;5072160;28;19924;-61
2022/09/10 11:23:45;;;;;;;;;;;22.40;56.40;;;;;;5071181;28;20013;-59
2022/09/10 11:26:12;;;;;;;;;;;22.40;56.40;;;;;;5071137;28;19999;-60
2022/09/10 11:28:42;;;;;;;;;;;22.40;56.30;;;;;;5074119;28;20042;-60
2022/09/10 11:31:10;;;;;;;;;;;22.40;56.30;;;;;;5072046;28;20261;-61
2022/09/10 11:33:38;;;;;;;;;;;22.40;56.30;;;;;;5071872;28;19924;-60
2022/09/10 11:36:06;;;;;;;;;;;22.40;56.30;;;;;;5073385;28;19924;-60
2022/09/10 11:38:37;;;;;;;;;;;22.40;56.40;;;;;;5066528;28;20443;-60
2022/09/10 11:41:07;;;;;;;;;;;22.40;56.30;;;;;;5061201;28;19932;-60
2022/09/10 11:43:36;;;;;;;;;;;22.40;56.30;;;;;;5060302;28;19967;-60
2022/09/10 11:46:06;;;;;;;;;;;22.40;56.30;;;;;;5068486;28;20281;-60
2022/09/10 11:48:33;;;;;;;;;;;22.40;56.30;;;;;;5073193;28;20283;-60
2022/09/10 11:51:00;;;;;;;;;;;22.40;56.40;;;;;;5072255;28;20027;-60
2022/09/10 11:53:29;;;;;;;;;;;22.40;56.40;;;;;;5067729;28;19920;-61
2022/09/10 11:56:13;;;;;;;;;;;22.40;56.40;;;;;;5076175;28;19927;-59
2022/09/10 11:58:42;;;;;;;;;;;22.40;56.40;;;;;;5085644;28;19932;-60
2022/09/10 12:01:13;;;;;;;;;;;22.30;56.20;;;;;;5066811;28;19942;-60
2022/09/10 12:03:50;;;;;;;;;;;22.40;56.20;;;;;;5069869;28;19998;-60
2022/09/10 12:06:17;;;;;;;;;;;22.40;56.10;;;;;;5060180;28;19963;-61
2022/09/10 12:08:58;;;;;;;;;;;22.40;56.10;;;;;;5060894;28;19955;-60
2022/09/10 12:11:27;;;;;;;;;;;22.40;56.00;;;;;;5061256;28;19950;-60
2022/09/10 12:13:53;;;;;;;;;;;22.40;56.00;;;;;;5070008;28;19920;-60
2022/09/10 12:16:23;;;;;;;;;;;22.40;56.00;;;;;;5085403;28;19973;-60
2022/09/10 12:18:50;;;;;;;;;;;22.40;55.90;;;;;;5063554;28;19943;-60
2022/09/10 12:21:20;;;;;;;;;;;22.40;55.90;;;;;;5065187;28;19963;-60
2022/09/10 12:23:46;;;;;;;;;;;22.40;55.80;;;;;;5066849;28;19928;-59
2022/09/10 12:26:16;;;;;;;;;;;22.40;55.80;;;;;;5086655;28;19928;-60
2022/09/10 12:28:56;;;;;;;;;;;22.50;55.80;;;;;;5070544;28;19927;-60
2022/09/10 12:31:25;;;;;;;;;;;22.50;55.80;;;;;;5069281;28;20018;-60
2022/09/10 12:34:07;;;;;;;;;;;22.50;55.80;;;;;;5072658;28;19921;-61
2022/09/10 12:36:53;;;;;;;;;;;22.50;55.80;;;;;;5068214;28;20433;-60
2022/09/10 12:39:20;;;;;;;;;;;22.50;55.80;;;;;;5068832;28;20036;-60
2022/09/10 12:41:58;;;;;;;;;;;22.50;55.70;;;;;;5058132;28;19975;-60
2022/09/10 12:44:29;;;;;;;;;;;22.50;55.70;;;;;;5077479;28;19965;-60
2022/09/10 12:47:10;;;;;;;;;;;22.40;55.60;;;;;;5080012;28;20361;-60
2022/09/10 12:49:46;;;;;;;;;;;22.50;55.70;;;;;;5068723;28;19931;-60
2022/09/10 12:52:12;;;;;;;;;;;22.50;55.70;;;;;;5066369;28;19927;-60
2022/09/10 12:54:43;;;;;;;;;;;22.50;55.70;;;;;;5068050;28;19920;-60
2022/09/10 12:57:13;;;;;;;;;;;22.50;55.60;;;;;;5075288;28;19920;-60
2022/09/10 12:59:46;;;;;;;;;;;22.50;55.60;;;;;;5081006;28;19925;-61
2022/09/10 13:02:20;;;;;;;;;;;22.50;55.60;;;;;;5060625;28;19920;-60
2022/09/10 13:04:53;;;;;;;;;;;22.50;55.60;;;;;;5072090;28;19966;-60
2022/09/10 13:07:20;;;;;;;;;;;22.50;55.60;;;;;;5075547;28;19960;-60
2022/09/10 13:09:47;;;;;;;;;;;22.50;55.60;;;;;;5087677;28;20004;-60
2022/09/10 13:12:16;;;;;;;;;;;22.50;55.60;;;;;;5064243;28;20361;-60
2022/09/10 13:14:45;;;;;;;;;;;22.50;55.60;;;;;;5071460;28;19947;-60
2022/09/10 13:17:28;;;;;;;;;;;22.50;55.60;;;;;;5064597;28;20696;-60
2022/09/10 13:19:57;;;;;;;;;;;22.50;55.60;;;;;;5085564;28;20007;-60
2022/09/10 13:22:35;;;;;;;;;;;22.50;55.60;;;;;;5075447;28;19959;-61
2022/09/10 13:25:02;;;;;;;;;;;22.60;55.70;;;;;;5076828;28;20043;-60
2022/09/10 13:27:35;;;;;;;;;;;22.60;55.70;;;;;;5065303;28;19924;-60
2022/09/10 13:30:09;;;;;;;;;;;22.60;55.80;;;;;;5056534;28;19964;-60
2022/09/10 13:32:38;;;;;;;;;;;22.60;55.70;;;;;;5060475;28;19920;-60
2022/09/10 13:35:18;;;;;;;;;;;22.60;55.70;;;;;;5078102;28;20273;-60
2022/09/10 13:38:06;;;;;;;;;;;22.60;55.80;;;;;;5074017;28;19936;-59
2022/09/10 13:40:38;;;;;;;;;;;22.60;55.90;;;;;;5056210;28;20023;-62
2022/09/10 13:43:20;;;;;;;;;;;22.60;56.00;;;;;;5068308;28;19924;-60
2022/09/10 13:45:47;;;;;;;;;;;22.60;56.00;;;;;;5058185;28;20376;-60
2022/09/10 13:48:16;;;;;;;;;;;22.50;55.80;;;;;;5063565;28;19940;-60
2022/09/10 13:50:49;;;;;;;;;;;22.60;55.90;;;;;;5061557;28;19970;-61
2022/09/10 13:53:16;;;;;;;;;;;22.60;55.90;;;;;;5082722;28;19919;-62
2022/09/10 13:55:47;;;;;;;;;;;22.60;55.90;;;;;;5061715;28;19920;-61
2022/09/10 13:58:15;;;;;;;;;;;22.60;55.80;;;;;;5060500;28;19928;-61
2022/09/10 14:00:42;;;;;;;;;;;22.60;55.90;;;;;;5052852;28;19924;-62
2022/09/10 14:03:16;;;;;;;;;;;22.60;55.80;;;;;;5077489;28;19950;-61
2022/09/10 14:05:43;;;;;;;;;;;22.60;55.80;;;;;;5063114;28;19997;-61
2022/09/10 14:08:13;;;;;;;;;;;22.60;55.80;;;;;;5062865;28;19920;-61
2022/09/10 14:10:48;;;;;;;;;;;22.60;55.80;;;;;;5065785;28;20374;-61
2022/09/10 14:13:16;;;;;;;;;;;22.60;55.80;;;;;;5068268;28;19924;-60
2022/09/10 14:15:42;;;;;;;;;;;22.60;55.80;;;;;;5068560;28;19973;-61
2022/09/10 14:18:09;;;;;;;;;;;22.60;55.80;;;;;;5068214;28;19959;-61
2022/09/10 14:20:36;;;;;;;;;;;22.60;55.80;;;;;;5071187;28;19927;-61
2022/09/10 14:23:03;;;;;;;;;;;22.60;55.80;;;;;;5065947;28;19962;-62